sensor_id;sensor_type;location;lat;lon;timestamp;pressure;altitude;pressure_sealevel;temperature;humidity
55468;BME280;41332;42.702;23.200;2023-08-30T00:00:35;93114.72;;;19.25;75.68
55468;BME280;41332;42.702;23.200;2023-08-30T00:03:00;93104.13;;;19.21;74.54
55468;BME280;41332;42.702;23.200;2023-08-30T00:05:26;93101.59;;;19.10;74.70
55468;BME280;41332;42.702;23.200;2023-08-30T00:07:53;93082.25;;;19.06;74.84
55468;BME280;41332;42.702;23.200;2023-08-30T00:10:18;93083.06;;;19.00;73.09
55468;BME280;41332;42.702;23.200;2023-08-30T00:12:43;93082.81;;;18.87;74.88
55468;BME280;41332;42.702;23.200;2023-08-30T00:15:08;93084.00;;;18.82;74.86
55468;BME280;41332;42.702;23.200;2023-08-30T00:17:34;93095.06;;;18.81;75.90
55468;BME280;41332;42.702;23.200;2023-08-30T00:19:59;93098.06;;;18.83;74.85
55468;BME280;41332;42.702;23.200;2023-08-30T00:22:24;93088.22;;;18.80;75.71
55468;BME280;41332;42.702;23.200;2023-08-30T00:24:50;93093.56;;;18.76;75.68
55468;BME280;41332;42.702;23.200;2023-08-30T00:27:15;93091.75;;;18.69;75.00
55468;BME280;41332;42.702;23.200;2023-08-30T00:29:40;93090.28;;;18.61;76.58
55468;BME280;41332;42.702;23.200;2023-08-30T00:32:06;93084.66;;;18.55;77.27
55468;BME280;41332;42.702;23.200;2023-08-30T00:34:31;93096.03;;;18.56;76.96
55468;BME280;41332;42.702;23.200;2023-08-30T00:36:56;93090.34;;;18.57;77.33
55468;BME280;41332;42.702;23.200;2023-08-30T00:39:21;93089.97;;;18.55;77.52
55468;BME280;41332;42.702;23.200;2023-08-30T00:41:46;93091.47;;;18.60;77.59
55468;BME280;41332;42.702;23.200;2023-08-30T00:44:12;93089.53;;;18.60;77.50
55468;BME280;41332;42.702;23.200;2023-08-30T00:46:37;93091.50;;;18.56;77.12
55468;BME280;41332;42.702;23.200;2023-08-30T00:49:05;93103.97;;;18.59;76.04
55468;BME280;41332;42.702;23.200;2023-08-30T00:51:30;93096.81;;;18.56;75.12
55468;BME280;41332;42.702;23.200;2023-08-30T00:53:56;93109.69;;;18.58;75.18
55468;BME280;41332;42.702;23.200;2023-08-30T00:56:23;93113.53;;;18.53;74.86
55468;BME280;41332;42.702;23.200;2023-08-30T00:58:48;93113.66;;;18.39;75.11
55468;BME280;41332;42.702;23.200;2023-08-30T01:01:14;93117.88;;;18.36;75.45
55468;BME280;41332;42.702;23.200;2023-08-30T01:03:40;93102.38;;;18.27;76.62
55468;BME280;41332;42.702;23.200;2023-08-30T01:06:05;93115.31;;;18.25;77.06
55468;BME280;41332;42.702;23.200;2023-08-30T01:08:30;93108.16;;;18.15;77.22
55468;BME280;41332;42.702;23.200;2023-08-30T01:13:27;93110.41;;;18.20;76.98
55468;BME280;41332;42.702;23.200;2023-08-30T01:15:55;93119.53;;;18.16;76.99
55468;BME280;41332;42.702;23.200;2023-08-30T01:18:22;93124.06;;;18.22;77.41
55468;BME280;41332;42.702;23.200;2023-08-30T01:20:49;93122.13;;;18.26;77.38
55468;BME280;41332;42.702;23.200;2023-08-30T01:28:07;93130.13;;;18.23;77.67
55468;BME280;41332;42.702;23.200;2023-08-30T01:30:34;93135.44;;;18.23;77.30
55468;BME280;41332;42.702;23.200;2023-08-30T01:33:00;93127.44;;;18.26;77.57
55468;BME280;41332;42.702;23.200;2023-08-30T01:35:26;93124.41;;;18.24;77.66
55468;BME280;41332;42.702;23.200;2023-08-30T01:37:55;93119.09;;;18.24;77.87
55468;BME280;41332;42.702;23.200;2023-08-30T01:40:21;93118.38;;;18.20;77.48
55468;BME280;41332;42.702;23.200;2023-08-30T01:42:47;93108.47;;;18.24;77.08
55468;BME280;41332;42.702;23.200;2023-08-30T01:45:13;93110.44;;;18.17;76.77
55468;BME280;41332;42.702;23.200;2023-08-30T01:47:39;93108.19;;;18.11;76.92
55468;BME280;41332;42.702;23.200;2023-08-30T01:50:06;93104.84;;;18.04;77.38
55468;BME280;41332;42.702;23.200;2023-08-30T01:52:32;93109.78;;;18.02;77.36
55468;BME280;41332;42.702;23.200;2023-08-30T01:54:57;93105.25;;;17.95;77.60
55468;BME280;41332;42.702;23.200;2023-08-30T01:57:23;93106.03;;;17.99;76.97
55468;BME280;41332;42.702;23.200;2023-08-30T01:59:48;93105.28;;;17.91;76.88
55468;BME280;41332;42.702;23.200;2023-08-30T02:02:13;93108.31;;;17.93;76.64
55468;BME280;41332;42.702;23.200;2023-08-30T02:04:39;93104.91;;;17.93;76.75
55468;BME280;41332;42.702;23.200;2023-08-30T02:07:04;93107.22;;;17.84;77.16
55468;BME280;41332;42.702;23.200;2023-08-30T02:09:39;93109.50;;;17.82;76.94
55468;BME280;41332;42.702;23.200;2023-08-30T02:12:10;93114.44;;;17.83;76.97
55468;BME280;41332;42.702;23.200;2023-08-30T02:14:38;93109.91;;;17.80;76.94
55468;BME280;41332;42.702;23.200;2023-08-30T02:17:04;93108.72;;;17.85;77.03
55468;BME280;41332;42.702;23.200;2023-08-30T02:19:29;93108.75;;;17.81;76.77
55468;BME280;41332;42.702;23.200;2023-08-30T02:21:55;93104.19;;;17.85;76.75
55468;BME280;41332;42.702;23.200;2023-08-30T02:24:20;93106.84;;;17.82;76.50
55468;BME280;41332;42.702;23.200;2023-08-30T02:26:45;93097.44;;;17.73;77.24
55468;BME280;41332;42.702;23.200;2023-08-30T02:29:11;93097.84;;;17.68;76.65
55468;BME280;41332;42.702;23.200;2023-08-30T02:31:38;93098.25;;;17.63;76.91
55468;BME280;41332;42.702;23.200;2023-08-30T02:34:03;93099.78;;;17.64;76.85
55468;BME280;41332;42.702;23.200;2023-08-30T02:36:28;93102.84;;;17.55;77.17
55468;BME280;41332;42.702;23.200;2023-08-30T02:38:54;93099.06;;;17.56;76.92
55468;BME280;41332;42.702;23.200;2023-08-30T02:41:19;93096.41;;;17.56;76.70
55468;BME280;41332;42.702;23.200;2023-08-30T02:43:44;93089.19;;;17.53;76.52
55468;BME280;41332;42.702;23.200;2023-08-30T02:46:09;93082.72;;;17.58;76.18
55468;BME280;41332;42.702;23.200;2023-08-30T02:48:34;93093.34;;;17.58;75.90
55468;BME280;41332;42.702;23.200;2023-08-30T02:51:00;93090.72;;;17.54;76.05
55468;BME280;41332;42.702;23.200;2023-08-30T02:53:25;93092.25;;;17.48;75.81
55468;BME280;41332;42.702;23.200;2023-08-30T02:55:50;93097.22;;;17.46;75.60
55468;BME280;41332;42.702;23.200;2023-08-30T02:58:16;93089.66;;;17.41;74.82
55468;BME280;41332;42.702;23.200;2023-08-30T03:00:41;93085.84;;;17.42;74.72
55468;BME280;41332;42.702;23.200;2023-08-30T03:03:06;93101.44;;;17.33;74.72
55468;BME280;41332;42.702;23.200;2023-08-30T03:05:32;93099.97;;;17.24;75.24
55468;BME280;41332;42.702;23.200;2023-08-30T03:07:57;93107.13;;;17.31;74.94
55468;BME280;41332;42.702;23.200;2023-08-30T03:10:22;93096.53;;;17.27;75.06
55468;BME280;41332;42.702;23.200;2023-08-30T03:12:48;93107.13;;;17.31;74.71
55468;BME280;41332;42.702;23.200;2023-08-30T03:15:13;93109.41;;;17.29;74.72
55468;BME280;41332;42.702;23.200;2023-08-30T03:17:38;93108.31;;;17.23;74.42
55468;BME280;41332;42.702;23.200;2023-08-30T03:20:03;93101.88;;;17.17;74.80
55468;BME280;41332;42.702;23.200;2023-08-30T03:22:30;93087.50;;;17.10;74.90
55468;BME280;41332;42.702;23.200;2023-08-30T03:24:55;93083.72;;;17.08;74.66
55468;BME280;41332;42.702;23.200;2023-08-30T03:27:21;93073.91;;;16.97;74.76
55468;BME280;41332;42.702;23.200;2023-08-30T03:29:46;93075.09;;;16.93;75.12
55468;BME280;41332;42.702;23.200;2023-08-30T03:32:14;93075.44;;;16.95;75.28
55468;BME280;41332;42.702;23.200;2023-08-30T03:34:39;93069.38;;;16.87;75.46
55468;BME280;41332;42.702;23.200;2023-08-30T03:37:05;93075.47;;;16.88;74.88
55468;BME280;41332;42.702;23.200;2023-08-30T03:39:30;93075.47;;;16.84;75.16
55468;BME280;41332;42.702;23.200;2023-08-30T03:41:56;93076.97;;;16.81;75.26
55468;BME280;41332;42.702;23.200;2023-08-30T03:44:21;93063.00;;;16.74;75.42
55468;BME280;41332;42.702;23.200;2023-08-30T03:46:47;93063.38;;;16.72;75.47
55468;BME280;41332;42.702;23.200;2023-08-30T03:49:12;93072.47;;;16.68;75.44
55468;BME280;41332;42.702;23.200;2023-08-30T03:51:38;93079.66;;;16.71;75.18
55468;BME280;41332;42.702;23.200;2023-08-30T03:54:06;93095.56;;;16.74;74.96
55468;BME280;41332;42.702;23.200;2023-08-30T03:56:31;93090.25;;;16.78;75.20
55468;BME280;41332;42.702;23.200;2023-08-30T03:58:56;93104.63;;;16.73;74.95
55468;BME280;41332;42.702;23.200;2023-08-30T04:01:22;93093.69;;;16.71;75.07
55468;BME280;41332;42.702;23.200;2023-08-30T04:03:47;93103.50;;;16.78;75.54
55468;BME280;41332;42.702;23.200;2023-08-30T04:06:12;93092.84;;;16.89;74.70
55468;BME280;41332;42.702;23.200;2023-08-30T04:08:37;93086.81;;;16.95;74.66
55468;BME280;41332;42.702;23.200;2023-08-30T04:11:03;93089.03;;;17.08;74.30
55468;BME280;41332;42.702;23.200;2023-08-30T04:13:28;93088.63;;;17.13;77.21
55468;BME280;41332;42.702;23.200;2023-08-30T04:15:53;93100.28;;;17.34;77.38
55468;BME280;41332;42.702;23.200;2023-08-30T04:18:18;93108.25;;;17.41;77.37
55468;BME280;41332;42.702;23.200;2023-08-30T04:20:44;93122.22;;;17.49;76.91
55468;BME280;41332;42.702;23.200;2023-08-30T04:23:10;93130.50;;;17.61;76.65
55468;BME280;41332;42.702;23.200;2023-08-30T04:25:36;93161.19;;;17.62;75.75
55468;BME280;41332;42.702;23.200;2023-08-30T04:28:01;93171.06;;;17.62;75.84
55468;BME280;41332;42.702;23.200;2023-08-30T04:30:27;93172.19;;;17.68;75.34
55468;BME280;41332;42.702;23.200;2023-08-30T04:32:52;93166.50;;;17.70;75.41
55468;BME280;41332;42.702;23.200;2023-08-30T04:35:18;93151.28;;;17.74;76.03
55468;BME280;41332;42.702;23.200;2023-08-30T04:37:43;93165.34;;;17.74;75.97
55468;BME280;41332;42.702;23.200;2023-08-30T04:40:08;93176.31;;;17.73;77.36
55468;BME280;41332;42.702;23.200;2023-08-30T04:42:34;93179.88;;;17.44;75.95
55468;BME280;41332;42.702;23.200;2023-08-30T04:45:00;93185.56;;;17.43;77.93
55468;BME280;41332;42.702;23.200;2023-08-30T04:47:26;93217.44;;;17.36;78.95
55468;BME280;41332;42.702;23.200;2023-08-30T04:49:51;93221.97;;;17.35;79.78
55468;BME280;41332;42.702;23.200;2023-08-30T04:52:17;93193.19;;;17.30;80.72
55468;BME280;41332;42.702;23.200;2023-08-30T04:54:42;93160.22;;;17.24;78.74
55468;BME280;41332;42.702;23.200;2023-08-30T04:57:08;93155.69;;;17.17;79.65
55468;BME280;41332;42.702;23.200;2023-08-30T04:59:33;93166.72;;;17.12;81.13
55468;BME280;41332;42.702;23.200;2023-08-30T05:01:58;93172.78;;;17.09;81.50
55468;BME280;41332;42.702;23.200;2023-08-30T05:04:24;93164.44;;;17.14;81.64
55468;BME280;41332;42.702;23.200;2023-08-30T05:06:49;93167.06;;;17.21;80.02
55468;BME280;41332;42.702;23.200;2023-08-30T05:09:15;93167.47;;;17.16;81.06
55468;BME280;41332;42.702;23.200;2023-08-30T05:11:40;93164.41;;;17.21;82.20
55468;BME280;41332;42.702;23.200;2023-08-30T05:14:05;93161.75;;;17.25;82.30
55468;BME280;41332;42.702;23.200;2023-08-30T05:16:30;93168.19;;;17.24;82.25
55468;BME280;41332;42.702;23.200;2023-08-30T05:18:56;93162.13;;;17.27;82.42
55468;BME280;41332;42.702;23.200;2023-08-30T05:21:21;93170.03;;;17.38;82.71
55468;BME280;41332;42.702;23.200;2023-08-30T05:23:46;93162.41;;;17.51;82.56
55468;BME280;41332;42.702;23.200;2023-08-30T05:26:12;93157.88;;;17.51;83.12
55468;BME280;41332;42.702;23.200;2023-08-30T05:28:37;93158.19;;;17.64;83.26
55468;BME280;41332;42.702;23.200;2023-08-30T05:31:03;93160.78;;;17.75;83.76
55468;BME280;41332;42.702;23.200;2023-08-30T05:33:28;93164.84;;;17.90;83.95
55468;BME280;41332;42.702;23.200;2023-08-30T05:35:53;93158.31;;;18.09;83.27
55468;BME280;41332;42.702;23.200;2023-08-30T05:38:19;93153.66;;;18.21;82.56
55468;BME280;41332;42.702;23.200;2023-08-30T05:40:44;93157.38;;;18.34;81.88
55468;BME280;41332;42.702;23.200;2023-08-30T05:43:10;93152.03;;;18.38;81.71
55468;BME280;41332;42.702;23.200;2023-08-30T05:45:38;93150.38;;;18.55;82.16
55468;BME280;41332;42.702;23.200;2023-08-30T05:48:03;93164.72;;;18.65;82.75
55468;BME280;41332;42.702;23.200;2023-08-30T05:50:29;93166.03;;;18.91;83.12
55468;BME280;41332;42.702;23.200;2023-08-30T05:52:54;93155.69;;;19.00;82.24
55468;BME280;41332;42.702;23.200;2023-08-30T05:55:19;93157.13;;;19.08;81.58
55468;BME280;41332;42.702;23.200;2023-08-30T05:57:45;93155.06;;;19.23;80.58
55468;BME280;41332;42.702;23.200;2023-08-30T06:00:10;93159.34;;;19.48;80.39
55468;BME280;41332;42.702;23.200;2023-08-30T06:02:36;93165.97;;;19.67;80.36
55468;BME280;41332;42.702;23.200;2023-08-30T06:05:01;93163.44;;;19.87;79.52
55468;BME280;41332;42.702;23.200;2023-08-30T06:07:27;93157.19;;;19.98;78.60
55468;BME280;41332;42.702;23.200;2023-08-30T06:09:53;93161.22;;;20.09;78.21
55468;BME280;41332;42.702;23.200;2023-08-30T06:12:18;93163.28;;;20.25;77.98
55468;BME280;41332;42.702;23.200;2023-08-30T06:14:43;93166.00;;;20.46;77.64
55468;BME280;41332;42.702;23.200;2023-08-30T06:17:14;93159.97;;;20.65;74.50
55468;BME280;41332;42.702;23.200;2023-08-30T06:19:40;93162.91;;;20.74;75.13
55468;BME280;41332;42.702;23.200;2023-08-30T06:22:05;93170.06;;;20.81;73.04
55468;BME280;41332;42.702;23.200;2023-08-30T06:24:30;93161.78;;;20.96;72.39
55468;BME280;41332;42.702;23.200;2023-08-30T06:26:55;93173.03;;;21.07;70.13
55468;BME280;41332;42.702;23.200;2023-08-30T06:29:21;93171.78;;;21.12;70.36
55468;BME280;41332;42.702;23.200;2023-08-30T06:31:46;93172.69;;;21.25;71.18
55468;BME280;41332;42.702;23.200;2023-08-30T06:34:11;93164.06;;;21.37;70.98
55468;BME280;41332;42.702;23.200;2023-08-30T06:36:37;93171.53;;;21.46;64.93
55468;BME280;41332;42.702;23.200;2023-08-30T06:39:02;93175.25;;;21.52;63.76
55468;BME280;41332;42.702;23.200;2023-08-30T06:41:27;93179.06;;;21.51;65.20
55468;BME280;41332;42.702;23.200;2023-08-30T06:43:53;93176.56;;;21.64;64.56
55468;BME280;41332;42.702;23.200;2023-08-30T06:46:18;93178.31;;;21.71;65.61
55468;BME280;41332;42.702;23.200;2023-08-30T06:48:44;93176.19;;;21.82;64.52
55468;BME280;41332;42.702;23.200;2023-08-30T06:51:09;93174.25;;;21.83;63.11
55468;BME280;41332;42.702;23.200;2023-08-30T06:53:35;93182.88;;;21.90;63.57
55468;BME280;41332;42.702;23.200;2023-08-30T06:56:01;93176.63;;;21.97;64.00
55468;BME280;41332;42.702;23.200;2023-08-30T06:58:26;93183.56;;;21.95;62.30
55468;BME280;41332;42.702;23.200;2023-08-30T07:00:52;93181.47;;;22.02;61.37
55468;BME280;41332;42.702;23.200;2023-08-30T07:03:18;93175.56;;;22.11;60.94
55468;BME280;41332;42.702;23.200;2023-08-30T07:05:43;93176.13;;;22.02;60.79
55468;BME280;41332;42.702;23.200;2023-08-30T07:08:09;93169.81;;;22.13;60.67
55468;BME280;41332;42.702;23.200;2023-08-30T07:10:34;93173.03;;;22.41;61.09
55468;BME280;41332;42.702;23.200;2023-08-30T07:12:59;93173.88;;;22.54;58.93
55468;BME280;41332;42.702;23.200;2023-08-30T07:15:25;93181.38;;;22.59;57.05
55468;BME280;41332;42.702;23.200;2023-08-30T07:17:50;93178.44;;;22.70;56.38
55468;BME280;41332;42.702;23.200;2023-08-30T07:20:15;93180.38;;;22.69;56.70
55468;BME280;41332;42.702;23.200;2023-08-30T07:22:41;93177.53;;;22.77;56.93
55468;BME280;41332;42.702;23.200;2023-08-30T07:25:06;93174.31;;;22.98;56.06
55468;BME280;41332;42.702;23.200;2023-08-30T07:27:32;93174.97;;;23.19;57.27
55468;BME280;41332;42.702;23.200;2023-08-30T07:29:57;93176.88;;;23.48;57.36
55468;BME280;41332;42.702;23.200;2023-08-30T07:32:23;93175.00;;;23.74;56.90
55468;BME280;41332;42.702;23.200;2023-08-30T07:34:48;93185.47;;;24.11;57.21
55468;BME280;41332;42.702;23.200;2023-08-30T07:37:17;93186.75;;;23.93;50.18
55468;BME280;41332;42.702;23.200;2023-08-30T07:39:43;93177.69;;;23.74;50.83
55468;BME280;41332;42.702;23.200;2023-08-30T07:42:09;93177.66;;;24.03;51.78
55468;BME280;41332;42.702;23.200;2023-08-30T07:44:34;93178.94;;;24.25;50.23
55468;BME280;41332;42.702;23.200;2023-08-30T07:46:59;93174.84;;;24.33;49.71
55468;BME280;41332;42.702;23.200;2023-08-30T07:49:24;93171.31;;;24.10;51.52
55468;BME280;41332;42.702;23.200;2023-08-30T07:51:50;93173.91;;;24.14;50.90
55468;BME280;41332;42.702;23.200;2023-08-30T07:54:15;93183.22;;;23.96;51.41
55468;BME280;41332;42.702;23.200;2023-08-30T07:56:40;93172.28;;;23.91;50.63
55468;BME280;41332;42.702;23.200;2023-08-30T07:59:05;93174.63;;;24.14;50.77
55468;BME280;41332;42.702;23.200;2023-08-30T08:01:31;93182.34;;;24.38;49.62
55468;BME280;41332;42.702;23.200;2023-08-30T08:03:56;93189.56;;;24.67;49.92
55468;BME280;41332;42.702;23.200;2023-08-30T08:06:21;93189.41;;;24.83;49.63
55468;BME280;41332;42.702;23.200;2023-08-30T08:08:49;93187.19;;;25.04;49.36
55468;BME280;41332;42.702;23.200;2023-08-30T08:11:15;93176.91;;;25.25;49.35
55468;BME280;41332;42.702;23.200;2023-08-30T08:13:40;93180.75;;;25.37;47.59
55468;BME280;41332;42.702;23.200;2023-08-30T08:16:06;93182.59;;;25.40;45.61
55468;BME280;41332;42.702;23.200;2023-08-30T08:18:32;93190.66;;;25.27;45.20
55468;BME280;41332;42.702;23.200;2023-08-30T08:20:57;93190.09;;;25.32;45.79
55468;BME280;41332;42.702;23.200;2023-08-30T08:23:22;93195.56;;;25.06;44.46
55468;BME280;41332;42.702;23.200;2023-08-30T08:25:47;93200.53;;;24.95;44.30
55468;BME280;41332;42.702;23.200;2023-08-30T08:28:13;93195.72;;;24.90;46.17
55468;BME280;41332;42.702;23.200;2023-08-30T08:30:38;93202.44;;;25.07;47.58
55468;BME280;41332;42.702;23.200;2023-08-30T08:33:03;93205.50;;;25.18;48.42
55468;BME280;41332;42.702;23.200;2023-08-30T08:35:28;93206.03;;;25.26;46.00
55468;BME280;41332;42.702;23.200;2023-08-30T08:37:54;93206.78;;;25.27;45.86
55468;BME280;41332;42.702;23.200;2023-08-30T08:40:19;93208.47;;;25.33;44.25
55468;BME280;41332;42.702;23.200;2023-08-30T08:42:44;93202.13;;;25.40;45.65
55468;BME280;41332;42.702;23.200;2023-08-30T08:45:10;93206.25;;;25.54;45.75
55468;BME280;41332;42.702;23.200;2023-08-30T08:47:38;93192.88;;;25.41;47.38
55468;BME280;41332;42.702;23.200;2023-08-30T08:50:04;93201.31;;;25.30;48.12
55468;BME280;41332;42.702;23.200;2023-08-30T08:52:30;93198.81;;;25.36;49.98
55468;BME280;41332;42.702;23.200;2023-08-30T08:54:55;93189.75;;;25.43;48.03
55468;BME280;41332;42.702;23.200;2023-08-30T08:57:21;93183.38;;;25.49;48.64
55468;BME280;41332;42.702;23.200;2023-08-30T08:59:47;93186.78;;;25.41;48.29
55468;BME280;41332;42.702;23.200;2023-08-30T09:02:13;93190.41;;;25.34;48.85
55468;BME280;41332;42.702;23.200;2023-08-30T09:04:39;93183.94;;;25.44;49.85
55468;BME280;41332;42.702;23.200;2023-08-30T09:07:05;93178.38;;;25.61;49.43
55468;BME280;41332;42.702;23.200;2023-08-30T09:09:30;93182.00;;;25.67;47.70
55468;BME280;41332;42.702;23.200;2023-08-30T09:11:55;93175.75;;;25.70;45.44
55468;BME280;41332;42.702;23.200;2023-08-30T09:14:21;93178.34;;;25.83;47.74
55468;BME280;41332;42.702;23.200;2023-08-30T09:16:56;93169.19;;;26.03;43.78
55468;BME280;41332;42.702;23.200;2023-08-30T09:19:22;93167.56;;;26.05;47.23
55468;BME280;41332;42.702;23.200;2023-08-30T09:21:53;93173.66;;;26.28;48.97
55468;BME280;41332;42.702;23.200;2023-08-30T09:24:19;93170.88;;;26.50;44.92
55468;BME280;41332;42.702;23.200;2023-08-30T09:26:48;93172.66;;;26.53;45.45
55468;BME280;41332;42.702;23.200;2023-08-30T09:29:15;93180.91;;;26.59;42.99
55468;BME280;41332;42.702;23.200;2023-08-30T09:31:41;93177.22;;;26.75;41.79
55468;BME280;41332;42.702;23.200;2023-08-30T09:34:07;93168.06;;;26.13;40.98
55468;BME280;41332;42.702;23.200;2023-08-30T09:36:35;93172.66;;;26.44;42.35
55468;BME280;41332;42.702;23.200;2023-08-30T09:39:04;93178.22;;;26.59;44.37
55468;BME280;41332;42.702;23.200;2023-08-30T09:41:30;93170.53;;;26.89;43.01
55468;BME280;41332;42.702;23.200;2023-08-30T09:43:56;93175.47;;;27.09;44.23
55468;BME280;41332;42.702;23.200;2023-08-30T09:46:21;93173.25;;;27.26;41.16
55468;BME280;41332;42.702;23.200;2023-08-30T09:48:48;93169.47;;;27.14;40.00
55468;BME280;41332;42.702;23.200;2023-08-30T09:51:13;93176.81;;;26.95;40.57
55468;BME280;41332;42.702;23.200;2023-08-30T09:53:41;93177.72;;;27.01;41.15
55468;BME280;41332;42.702;23.200;2023-08-30T09:56:09;93170.16;;;26.68;39.54
55468;BME280;41332;42.702;23.200;2023-08-30T09:58:35;93161.84;;;26.94;41.75
55468;BME280;41332;42.702;23.200;2023-08-30T10:01:01;93156.16;;;26.92;42.24
55468;BME280;41332;42.702;23.200;2023-08-30T10:03:28;93169.63;;;26.92;40.70
55468;BME280;41332;42.702;23.200;2023-08-30T10:05:54;93155.28;;;27.04;42.30
55468;BME280;41332;42.702;23.200;2023-08-30T10:08:22;93156.19;;;27.10;40.18
55468;BME280;41332;42.702;23.200;2023-08-30T10:10:48;93163.50;;;27.19;40.75
55468;BME280;41332;42.702;23.200;2023-08-30T10:13:14;93150.94;;;27.44;40.58
55468;BME280;41332;42.702;23.200;2023-08-30T10:15:40;93147.47;;;27.62;39.36
55468;BME280;41332;42.702;23.200;2023-08-30T10:18:08;93145.94;;;27.70;40.75
55468;BME280;41332;42.702;23.200;2023-08-30T10:20:34;93146.25;;;27.72;38.37
55468;BME280;41332;42.702;23.200;2023-08-30T10:22:59;93145.09;;;27.36;38.88
55468;BME280;41332;42.702;23.200;2023-08-30T10:25:26;93152.56;;;27.32;41.02
55468;BME280;41332;42.702;23.200;2023-08-30T10:27:52;93139.41;;;27.43;40.56
55468;BME280;41332;42.702;23.200;2023-08-30T10:30:19;93141.72;;;27.78;40.30
55468;BME280;41332;42.702;23.200;2023-08-30T10:32:45;93142.88;;;28.05;39.70
55468;BME280;41332;42.702;23.200;2023-08-30T10:35:17;93136.03;;;27.76;38.79
55468;BME280;41332;42.702;23.200;2023-08-30T10:37:53;93139.34;;;27.71;37.75
55468;BME280;41332;42.702;23.200;2023-08-30T10:40:18;93135.97;;;28.04;37.37
55468;BME280;41332;42.702;23.200;2023-08-30T10:42:45;93140.00;;;28.09;36.69
55468;BME280;41332;42.702;23.200;2023-08-30T10:45:10;93133.16;;;28.32;36.57
55468;BME280;41332;42.702;23.200;2023-08-30T10:47:35;93134.75;;;28.39;39.03
55468;BME280;41332;42.702;23.200;2023-08-30T10:50:27;93142.56;;;28.70;37.82
55468;BME280;41332;42.702;23.200;2023-08-30T10:52:57;93128.00;;;28.68;34.12
55468;BME280;41332;42.702;23.200;2023-08-30T10:55:22;93133.97;;;28.72;36.45
55468;BME280;41332;42.702;23.200;2023-08-30T10:57:57;93127.16;;;28.86;33.53
55468;BME280;41332;42.702;23.200;2023-08-30T11:00:22;93131.28;;;28.96;34.65
55468;BME280;41332;42.702;23.200;2023-08-30T11:02:48;93132.47;;;28.95;32.95
55468;BME280;41332;42.702;23.200;2023-08-30T11:05:18;93128.09;;;28.98;32.20
55468;BME280;41332;42.702;23.200;2023-08-30T11:07:43;93118.31;;;29.00;33.56
55468;BME280;41332;42.702;23.200;2023-08-30T11:10:10;93111.72;;;29.01;33.20
55468;BME280;41332;42.702;23.200;2023-08-30T11:12:35;93115.91;;;29.02;31.34
55468;BME280;41332;42.702;23.200;2023-08-30T11:15:01;93125.22;;;29.01;31.97
55468;BME280;41332;42.702;23.200;2023-08-30T11:17:27;93122.44;;;29.10;32.68
55468;BME280;41332;42.702;23.200;2023-08-30T11:20:05;93125.34;;;29.22;33.50
55468;BME280;41332;42.702;23.200;2023-08-30T11:22:31;93120.41;;;29.20;31.80
55468;BME280;41332;42.702;23.200;2023-08-30T11:24:56;93114.38;;;29.25;31.56
55468;BME280;41332;42.702;23.200;2023-08-30T11:27:21;93124.75;;;29.27;31.09
55468;BME280;41332;42.702;23.200;2023-08-30T11:29:47;93115.94;;;29.17;31.90
55468;BME280;41332;42.702;23.200;2023-08-30T11:32:12;93104.47;;;29.22;31.33
55468;BME280;41332;42.702;23.200;2023-08-30T11:34:37;93102.78;;;29.10;31.31
55468;BME280;41332;42.702;23.200;2023-08-30T11:37:02;93104.38;;;29.17;31.25
55468;BME280;41332;42.702;23.200;2023-08-30T11:39:28;93104.94;;;29.21;30.20
55468;BME280;41332;42.702;23.200;2023-08-30T11:41:54;93096.56;;;29.19;30.98
55468;BME280;41332;42.702;23.200;2023-08-30T11:44:19;93091.97;;;29.10;30.29
55468;BME280;41332;42.702;23.200;2023-08-30T11:46:44;93086.94;;;29.03;31.09
55468;BME280;41332;42.702;23.200;2023-08-30T11:49:10;93076.09;;;28.88;31.35
55468;BME280;41332;42.702;23.200;2023-08-30T11:51:35;93077.94;;;28.82;31.34
55468;BME280;41332;42.702;23.200;2023-08-30T11:54:01;93081.22;;;28.86;30.42
55468;BME280;41332;42.702;23.200;2023-08-30T11:56:28;93076.09;;;28.88;30.16
55468;BME280;41332;42.702;23.200;2023-08-30T11:58:54;93079.47;;;28.98;30.46
55468;BME280;41332;42.702;23.200;2023-08-30T12:01:19;93080.94;;;28.84;30.93
55468;BME280;41332;42.702;23.200;2023-08-30T12:03:44;93074.13;;;28.88;30.79
55468;BME280;41332;42.702;23.200;2023-08-30T12:06:14;93082.53;;;28.90;31.25
55468;BME280;41332;42.702;23.200;2023-08-30T12:08:40;93069.19;;;28.87;30.50
55468;BME280;41332;42.702;23.200;2023-08-30T12:11:05;93075.16;;;28.91;29.93
55468;BME280;41332;42.702;23.200;2023-08-30T12:13:34;93071.81;;;28.96;30.37
55468;BME280;41332;42.702;23.200;2023-08-30T12:16:00;93066.81;;;29.04;29.28
55468;BME280;41332;42.702;23.200;2023-08-30T12:18:26;93064.47;;;29.11;29.55
55468;BME280;41332;42.702;23.200;2023-08-30T12:20:57;93066.97;;;29.00;29.08
55468;BME280;41332;42.702;23.200;2023-08-30T12:23:32;93061.69;;;29.06;29.04
55468;BME280;41332;42.702;23.200;2023-08-30T12:26:05;93063.38;;;29.03;28.14
55468;BME280;41332;42.702;23.200;2023-08-30T12:28:31;93057.56;;;28.96;27.64
55468;BME280;41332;42.702;23.200;2023-08-30T12:30:57;93058.22;;;28.90;29.82
55468;BME280;41332;42.702;23.200;2023-08-30T12:33:22;93049.94;;;28.94;29.79
55468;BME280;41332;42.702;23.200;2023-08-30T12:35:50;93059.63;;;29.01;28.79
55468;BME280;41332;42.702;23.200;2023-08-30T12:38:15;93065.78;;;29.01;28.75
55468;BME280;41332;42.702;23.200;2023-08-30T12:40:44;93059.38;;;29.14;29.48
55468;BME280;41332;42.702;23.200;2023-08-30T12:43:10;93045.28;;;29.24;28.39
55468;BME280;41332;42.702;23.200;2023-08-30T12:45:36;93045.56;;;29.11;26.20
55468;BME280;41332;42.702;23.200;2023-08-30T12:48:01;93051.34;;;29.04;26.99
55468;BME280;41332;42.702;23.200;2023-08-30T12:50:26;93046.84;;;29.01;27.44